This is the latest recevied weather packets stored in our database for station/object KC2TER. If no packets are shown the sender has not sent any weather packets the latest 10 day(s).
| Time | Temp. | Humidity | Pressure | Rain* | Wind** | Luminosity | Snow |
|---|---|---|---|---|---|---|---|
| 1777757053 | 13.89° C | 69% | 1010.1 hPa | 0 mm | - | 136 W/m² | - |
| 1777756750 | 13.89° C | 67% | 1010 hPa | 0 mm | - | 86 W/m² | - |
| 1777756451 | 13.89° C | 65% | 1009.9 hPa | 0 mm | - | 142 W/m² | - |
| 1777756148 | 14.44° C | 67% | 1009.9 hPa | 0 mm | - | 135 W/m² | - |
| 1777755845 | 14.44° C | 66% | 1009.8 hPa | 0 mm | - | 184 W/m² | - |
| 1777755543 | 14.44° C | 66% | 1009.8 hPa | 0 mm | - | 203 W/m² | - |
| 1777755238 | 14.44° C | 64% | 1009.8 hPa | 0 mm | - | 192 W/m² | - |
| 1777754936 | 14.44° C | 65% | 1009.7 hPa | 0 mm | - | 150 W/m² | - |
| 1777754633 | 14.44° C | 66% | 1009.7 hPa | 0 mm | - | 150 W/m² | - |
| 1777754330 | 15° C | 62% | 1009.6 hPa | 0 mm | - | 153 W/m² | - |
| 1777754028 | 15° C | 62% | 1010 hPa | 0 mm | - | 204 W/m² | - |
| 1777753723 | 15° C | 62% | 1009.7 hPa | 0 mm | - | 179 W/m² | - |
| 1777753421 | 15.56° C | 62% | 1009.8 hPa | 0 mm | - | 124 W/m² | - |
| 1777753119 | 16.67° C | 60% | 1009.9 hPa | 0 mm | - | 182 W/m² | - |
| 1777752815 | 16.67° C | 60% | 1009.9 hPa | 0 mm | - | 256 W/m² | - |
| 1777752511 | 16.11° C | 60% | 1009.9 hPa | 0 mm | - | 274 W/m² | - |
| 1777752207 | 16.11° C | 60% | 1009.9 hPa | 0 mm | - | 209 W/m² | - |
| 1777751905 | 16.67° C | 60% | 1010.1 hPa | 0 mm | - | 212 W/m² | - |
| 1777751601 | 16.11° C | 62% | 1010.1 hPa | 0 mm | - | 616 W/m² | - |
| 1777751298 | 15° C | 66% | 1010.2 hPa | 0 mm | - | 672 W/m² | - |
| 1777750995 | 15° C | 65% | 1010.1 hPa | 0 mm | - | 166 W/m² | - |
| 1777750691 | 15° C | 67% | 1010.5 hPa | 0 mm | - | 155 W/m² | - |
| 1777750388 | 15° C | 66% | 1010.4 hPa | 0 mm | - | 208 W/m² | - |
| 1777750083 | 14.44° C | 67% | 1010.6 hPa | 0 mm | - | 339 W/m² | - |
| 1777749781 | 14.44° C | 67% | 1010.9 hPa | 0 mm | - | 181 W/m² | - |
* Rain latest hour (hover to see other rain measurements)
** Current wind speed in m/s (hover to see current wind gust speed)